Latest Weather Observations for Lajamanu

IDD60801

Issued at 5:05 pm CST Friday 24 October 2014 (issued every 30 minutes, with the page automatically refreshed every 10 minutes)

About weather observations | Map of weather stations | Latest weather observations for NT | Other Formats
Station Details ID: 014829 Name: LAJAMANU AIRPORT Lat: -18.33 Lon: 130.64 Height: 315.6 m
Data from the previous 72 hours. | See also: Recent months at Lajamanu
Date/Time
CST
Temp
°C
App
Temp
°C
Dew
Point
Rel
Hum
%
Delta-T
°C
Wind Press
QNH
hPa
Press
MSL
hPa
Rain
since 9 am
mm
Dir
 
Spd
km/h
Gust
km/h
Spd
kts
Gust
kts
24/05:00pm 37.6 33.1 2.1 11 18.7 ENE 15 26 8 14 1011.2 1009.0 0.0
24/04:30pm 37.9 34.2 2.4 11 18.8 ESE 11 24 6 13 1011.2 1009.0 0.0
24/04:00pm 38.3 34.0 1.3 10 19.3 ESE 13 20 7 11 1011.5 1009.3 0.0
24/03:30pm 38.0 32.0 1.1 10 19.2 E 22 33 12 18 1011.7 1009.5 0.0
24/03:00pm 38.1 33.1 1.2 10 19.2 ENE 17 20 9 11 1011.8 1009.6 0.0
24/02:30pm 37.0 32.8 1.7 11 18.4 N 13 22 7 12 1012.2 1010.1 0.0
24/02:16pm 38.0 30.7 2.4 11 18.8 ENE 30 43 16 23 1012.4 1010.3 0.0
24/02:00pm 38.0 34.9 3.7 12 18.5 N 9 13 5 7 1012.6 1010.5 0.0
24/01:30pm 37.9 32.7 2.4 11 18.8 ENE 19 39 10 21 1013.3 1011.1 0.0
24/01:00pm 37.6 31.0 2.1 11 18.7 ENE 26 35 14 19 1013.9 1011.7 0.0
24/12:30pm 36.3 30.7 5.5 15 16.9 NE 24 41 13 22 1014.4 1012.2 0.0
24/12:00pm 37.0 32.7 7.9 17 16.7 N 20 26 11 14 1014.8 1012.6 0.0
24/11:30am 36.2 32.4 8.9 19 15.8 NNE 19 26 10 14 1015.2 1013.1 0.0
24/11:00am 35.6 31.4 8.4 19 15.6 NNE 20 30 11 16 1015.5 1013.4 0.0
24/10:30am 34.4 30.2 8.2 20 14.9 NNE 20 33 11 18 1015.8 1013.7 0.0
24/10:00am 33.9 29.4 8.5 21 14.5 NNE 22 32 12 17 1015.9 1013.8 0.0
24/09:30am 32.4 26.2 8.0 22 13.7 N 30 41 16 22 1015.6 1013.5 0.0
24/09:00am 31.3 26.0 8.3 24 12.9 N 26 39 14 21 1015.6 1013.5 0.0
24/08:30am 29.8 23.9 7.7 25 12.2 N 28 39 15 21 1015.4 1013.3 0.0
24/08:00am 28.4 23.5 7.1 26 11.5 N 22 35 12 19 1015.0 1012.9 0.0
24/07:30am 27.3 22.9 6.7 27 11.0 N 19 26 10 14 1015.0 1012.9 0.0
24/07:00am 23.5 20.9 6.3 33 8.9 N 9 11 5 6 1014.9 1012.7 0.0
24/06:30am 18.3 16.0 5.5 43 6.3 NNE 7 11 4 6 1014.5 1012.3 0.0
24/06:00am 18.8 16.3 4.6 39 6.9 NE 7 11 4 6 1014.2 1012.0 0.0
24/05:30am 20.0 17.6 5.3 38 7.3 NE 7 11 4 6 1013.7 1011.5 0.0
24/05:00am 19.4 18.3 5.1 39 7.1 CALM 0 0 0 0 1013.2 1011.0 0.0
24/04:30am 19.5 17.6 4.8 38 7.2 SE 4 7 2 4 1013.0 1010.8 0.0
24/04:00am 20.2 18.3 4.7 36 7.6 SSE 4 11 2 6 1012.8 1010.6 0.0
24/03:30am 21.2 19.9 4.3 33 8.3 CALM 0 0 0 0 1012.5 1010.4 0.0
24/03:00am 21.5 19.9 4.6 33 8.4 S 2 7 1 4 1012.4 1010.3 0.0
24/02:30am 21.3 20.1 4.4 33 8.4 CALM 0 0 0 0 1012.9 1010.7 0.0
24/02:00am 22.2 21.0 4.7 32 8.8 CALM 0 0 0 0 1013.3 1011.1 0.0
24/01:30am 21.6 20.4 4.7 33 8.4 CALM 0 0 0 0 1013.6 1011.4 0.0
24/01:00am 23.3 22.3 5.7 32 9.0 CALM 0 0 0 0 1013.8 1011.6 0.0
24/12:30am 22.8 21.1 3.9 29 9.4 ESE 2 7 1 4 1014.0 1011.8 0.0
24/12:00am 25.2 22.8 5.4 28 10.2 E 7 7 4 4 1014.3 1012.1 0.0
 
Date/Time
CST
Temp
°C
App
Temp
°C
Dew
Point
Rel
Hum
%
Delta-T
°C
Wind Press
QNH
hPa
Press
MSL
hPa
Rain
since 9 am
mm
Dir
 
Spd
km/h
Gust
km/h
Spd
kts
Gust
kts
23/11:30pm 25.2 22.7 4.9 27 10.4 E 7 9 4 5 1014.5 1012.3 0.0
23/11:00pm 25.5 23.1 5.1 27 10.5 SE 7 9 4 5 1014.7 1012.5 0.0
23/10:30pm 25.8 23.1 3.7 24 11.1 SE 7 9 4 5 1014.7 1012.5 0.0
23/10:00pm 26.8 23.5 2.7 21 12.0 E 9 11 5 6 1014.6 1012.4 0.0
23/09:30pm 27.2 23.9 2.3 20 12.3 E 9 11 5 6 1014.2 1012.0 0.0
23/09:00pm 27.4 24.3 0.2 17 13.0 E 6 9 3 5 1013.7 1011.5 0.0
23/08:30pm 28.3 24.9 -0.8 15 13.7 E 7 9 4 5 1013.5 1011.3 0.0
23/08:00pm 29.4 25.6 -0.9 14 14.4 E 9 11 5 6 1013.2 1011.0 0.0
23/07:30pm 30.9 27.1 -0.7 13 15.2 ESE 9 11 5 6 1013.0 1010.8 0.0
23/07:00pm 33.4 29.2 -1.0 11 16.8 E 11 15 6 8 1012.4 1010.3 0.0
23/06:30pm 35.4 31.2 -0.8 10 18.0 ENE 11 17 6 9 1011.8 1009.6 0.0
23/06:00pm 36.6 31.8 0.1 10 18.5 E 15 20 8 11 1011.5 1009.3 0.0
23/05:30pm 37.1 33.8 0.4 10 18.8 ESE 7 9 4 5 1011.2 1009.0 0.0
23/05:00pm 37.7 32.1 0.9 10 19.0 ENE 20 35 11 19 1011.1 1008.9 0.0
23/04:30pm 37.6 32.1 0.8 10 19.0 ENE 19 30 10 16 1011.1 1008.9 0.0
23/04:00pm 37.5 31.8 0.7 10 18.9 ENE 20 35 11 19 1011.3 1009.1 0.0
23/03:30pm 37.6 33.6 0.8 10 19.0 E 11 17 6 9 1011.3 1009.1 0.0
23/03:00pm 37.7 32.6 0.9 10 19.0 E 17 28 9 15 1011.5 1009.3 0.0
23/02:30pm 38.8 33.3 1.7 10 19.5 ENE 20 35 11 19 1011.9 1009.7 0.0
23/02:00pm 38.8 33.7 3.1 11 19.2 ENE 19 30 10 16 1012.1 1010.0 0.0
23/01:30pm 37.5 33.0 2.1 11 18.6 N 15 22 8 12 1012.8 1010.6 0.0
23/01:00pm 37.6 31.4 2.1 11 18.7 NE 24 39 13 21 1013.4 1011.2 0.0
23/12:30pm 37.6 31.8 2.1 11 18.7 NNE 22 41 12 22 1013.8 1011.6 0.0
23/12:00pm 37.1 32.6 4.1 13 17.8 ENE 17 32 9 17 1014.3 1012.1 0.0
23/11:30am 35.4 30.2 3.8 14 16.8 N 20 33 11 18 1014.8 1012.6 0.0
23/11:00am 35.3 29.2 4.8 15 16.5 N 26 41 14 22 1015.1 1013.0 0.0
23/10:30am 34.3 28.6 6.6 18 15.3 N 26 35 14 19 1015.4 1013.3 0.0
23/10:00am 33.5 27.0 6.7 19 14.8 N 30 43 16 23 1015.6 1013.5 0.0
23/09:30am 32.8 26.4 6.9 20 14.3 N 30 41 16 22 1015.6 1013.5 0.0
23/09:00am 31.5 24.6 6.5 21 13.6 N 32 43 17 23 1015.4 1013.3 0.0
23/08:30am 30.6 24.3 5.8 21 13.3 N 28 41 15 22 1015.1 1013.0 0.0
23/08:00am 29.2 22.2 6.0 23 12.4 N 32 46 17 25 1014.9 1012.7 0.0
23/07:30am 27.4 21.5 5.6 25 11.4 N 26 35 14 19 1014.8 1012.6 0.0
23/07:00am 26.5 21.6 4.9 25 11.1 N 20 32 11 17 1014.6 1012.4 0.0
23/06:30am 25.5 21.1 4.6 26 10.7 N 17 24 9 13 1014.3 1012.1 0.0
23/06:00am 24.4 20.4 3.1 25 10.5 N 13 19 7 10 1013.9 1011.7 0.0
23/05:30am 24.3 20.8 3.6 26 10.3 NNE 11 15 6 8 1013.8 1011.6 0.0
23/05:00am 21.4 18.1 4.5 33 8.4 N 11 13 6 7 1013.6 1011.4 0.0
23/04:30am 20.3 19.1 4.4 35 7.8 CALM 0 0 0 0 1012.8 1010.6 0.0
23/04:00am 21.2 18.3 4.7 34 8.2 SE 9 19 5 10 1012.9 1010.7 0.0
23/03:30am 21.0 18.6 4.1 33 8.3 WSW 6 7 3 4 1012.4 1010.3 0.0
23/03:00am 21.6 19.1 4.7 33 8.4 SSW 7 9 4 5 1012.4 1010.3 0.0
23/02:30am 23.2 20.5 3.7 28 9.6 NNE 7 9 4 5 1012.5 1010.4 0.0
23/02:00am 27.5 24.3 3.2 21 12.2 NNE 9 11 5 6 1012.9 1010.7 0.0
23/01:30am 28.4 24.5 3.3 20 12.7 NNE 13 15 7 8 1013.2 1011.0 0.0
23/01:00am 27.7 23.9 4.1 22 12.1 NE 13 15 7 8 1013.4 1011.2 0.0
23/12:30am 27.4 24.1 4.5 23 11.8 ENE 11 13 6 7 1013.6 1011.4 0.0
23/12:00am 25.4 22.3 3.4 24 11.0 E 9 13 5 7 1013.8 1011.6 0.0
 
Date/Time
CST
Temp
°C
App
Temp
°C
Dew
Point
Rel
Hum
%
Delta-T
°C
Wind Press
QNH
hPa
Press
MSL
hPa
Rain
since 9 am
mm
Dir
 
Spd
km/h
Gust
km/h
Spd
kts
Gust
kts
22/11:30pm 24.9 22.1 3.0 24 10.8 E 7 11 4 6 1014.1 1011.9 0.0
22/11:00pm 24.9 21.6 2.4 23 11.0 E 9 11 5 6 1014.3 1012.1 0.0
22/10:30pm 26.1 22.6 1.4 20 11.9 ENE 9 9 5 5 1014.3 1012.1 0.0
22/10:00pm 27.2 23.8 1.6 19 12.5 E 9 11 5 6 1014.2 1012.0 0.0
22/09:30pm 27.9 24.0 1.4 18 13.0 E 11 13 6 7 1014.1 1011.9 0.0
22/09:00pm 27.8 24.2 0.5 17 13.1 ESE 9 9 5 5 1013.9 1011.7 0.0
22/08:30pm 30.1 26.4 -0.3 14 14.7 ESE 9 13 5 7 1013.4 1011.2 0.0
22/08:00pm 31.7 27.2 -0.1 13 15.6 ESE 13 15 7 8 1013.1 1010.9 0.0
22/07:30pm 33.2 28.4 0.0 12 16.4 ESE 15 20 8 11 1012.6 1010.5 0.0
22/07:00pm 34.4 28.8 -0.3 11 17.2 ESE 19 26 10 14 1012.3 1010.2 0.0
22/06:30pm 35.2 30.8 0.3 11 17.6 ESE 13 20 7 11 1011.8 1009.6 0.0
22/06:00pm 36.9 31.4 0.3 10 18.6 ESE 19 24 10 13 1011.6 1009.4 0.0
22/05:30pm 37.9 31.7 -0.4 9 19.4 ESE 22 28 12 15 1011.5 1009.3 0.0
22/05:00pm 38.5 32.5 -1.6 8 20.0 ENE 20 32 11 17 1011.4 1009.2 0.0
22/04:30pm 39.5 33.8 -0.8 8 20.5 ESE 19 30 10 16 1011.4 1009.2 0.0
22/04:00pm 39.2 34.1 0.6 9 20.0 ESE 17 26 9 14 1011.4 1009.2 0.0
22/03:30pm 39.1 33.4 0.5 9 20.0 ESE 20 35 11 19 1011.6 1009.4 0.0
22/03:00pm 39.4 33.3 0.7 9 20.1 ENE 22 32 12 17 1011.9 1009.7 0.0
22/02:30pm 39.6 33.6 0.9 9 20.2 E 22 32 12 17 1012.1 1010.0 0.0
22/02:00pm 38.6 33.8 0.1 9 19.7 N 15 30 8 16 1012.5 1010.4 0.0
22/01:30pm 39.1 33.0 0.5 9 20.0 E 22 39 12 21 1013.2 1011.0 0.0
22/01:00pm 38.5 32.7 0.0 9 19.7 E 20 30 11 16 1013.6 1011.4 0.0
22/12:30pm 38.3 33.3 1.3 10 19.3 NE 17 28 9 15 1014.1 1011.9 0.0
22/12:00pm 38.1 32.1 1.2 10 19.2 NE 22 41 12 22 1014.7 1012.5 0.0
22/11:30am 37.5 31.3 2.1 11 18.6 NNE 24 32 13 17 1015.1 1013.0 0.0
22/11:00am 36.0 31.3 3.3 13 17.4 NNE 17 33 9 18 1015.4 1013.3 0.0
22/10:30am 35.4 30.8 3.8 14 16.8 NNE 17 24 9 13 1015.6 1013.5 0.0
22/10:00am 34.4 29.8 5.8 17 15.7 N 19 28 10 15 1015.8 1013.7 0.0
22/09:30am 32.8 28.2 5.4 18 14.8 N 19 24 10 13 1016.0 1013.9 0.0
22/09:00am 31.0 26.2 4.7 19 13.9 N 19 26 10 14 1016.4 1014.2 0.0
22/08:30am 29.4 25.9 3.4 19 13.3 NNE 11 17 6 9 1016.3 1014.1 0.0
22/08:00am 27.1 24.7 5.4 25 11.3 ESE 7 11 4 6 1015.8 1013.7 0.0
22/07:30am 23.2 22.1 5.1 31 9.2 CALM 0 0 0 0 1015.5 1013.4 0.0
22/07:00am 20.6 19.7 6.2 39 7.3 CALM 0 0 0 0 1015.1 1013.0 0.0
22/06:30am 17.8 16.8 5.4 44 6.1 CALM 0 0 0 0 1014.4 1012.2 0.0
22/06:00am 17.8 16.7 5.1 43 6.2 CALM 0 0 0 0 1014.0 1011.8 0.0
22/05:30am 18.3 16.1 5.5 43 6.3 S 6 9 3 5 1013.8 1011.6 0.0
22/05:00am 18.2 17.1 5.1 42 6.4 CALM 0 0 0 0 1013.4 1011.2 0.0
22/04:30am 18.1 16.2 5.0 42 6.4 S 4 7 2 4 1013.4 1011.2 0.0
22/04:00am 19.4 17.4 6.2 42 6.7 S 6 9 3 5 1013.3 1011.1 0.0
22/03:30am 19.4 17.0 4.3 37 7.4 N 6 9 3 5 1013.2 1011.0 0.0
22/03:00am 21.8 18.8 3.9 31 8.8 NNE 9 11 5 6 1013.2 1011.0 0.0
22/02:30am 20.2 19.0 4.7 36 7.7 CALM 0 4 0 2 1013.6 1011.4 0.0
22/02:00am 21.3 18.9 4.4 33 8.4 ENE 6 9 3 5 1013.8 1011.6 0.0
22/01:30am 23.5 20.7 3.4 27 9.9 NE 7 9 4 5 1014.1 1011.9 0.0
22/01:00am 25.0 22.3 2.4 23 11.0 NE 6 9 3 5 1014.4 1012.2 0.0
22/12:30am 27.4 23.8 3.2 21 12.2 NE 11 15 6 8 1014.8 1012.6 0.0
22/12:00am 27.4 23.6 3.8 22 12.0 NE 13 13 7 7 1015.1 1013.0 0.0
 
Date/Time
CST
Temp
°C
App
Temp
°C
Dew
Point
Rel
Hum
%
Delta-T
°C
Wind Press
QNH
hPa
Press
MSL
hPa
Rain
since 9 am
mm
Dir
 
Spd
km/h
Gust
km/h
Spd
kts
Gust
kts
21/11:30pm 27.1 23.6 3.6 22 11.9 NE 11 13 6 7 1015.5 1013.4 0.0
21/11:00pm 26.7 23.0 2.6 21 12.0 ENE 11 11 6 6 1015.7 1013.6 0.0
21/10:30pm 27.6 23.9 2.6 20 12.5 ENE 11 13 6 7 1015.8 1013.7 0.0
21/10:00pm 27.5 23.7 1.8 19 12.6 E 11 11 6 6 1015.7 1013.6 0.0
21/09:30pm 27.9 24.2 2.2 19 12.7 E 11 11 6 6 1015.5 1013.4 0.0
21/09:00pm 27.9 24.4 1.4 18 13.0 E 9 11 5 6 1015.2 1013.1 0.0
21/08:30pm 28.3 25.3 1.7 18 13.1 E 7 9 4 5 1015.0 1012.9 0.0
21/08:00pm 29.2 26.2 1.7 17 13.7 SE 7 7 4 4 1014.6 1012.4 0.0
21/07:30pm 31.1 27.9 0.5 14 15.1 SE 7 9 4 5 1014.3 1012.1 0.0
21/07:00pm 33.0 29.1 0.9 13 16.1 SE 11 15 6 8 1014.0 1011.8 0.0
21/06:30pm 34.4 29.5 2.0 13 16.7 ESE 17 26 9 14 1013.6 1011.4 0.0
21/06:00pm 35.2 31.5 2.6 13 17.0 SE 11 17 6 9 1013.1 1010.9 0.0
21/05:30pm 36.2 31.3 2.3 12 17.7 SE 17 22 9 12 1012.8 1010.6 0.0

Other Formats:

Comma delimited format used in spreadsheet applications
http://www.bom.gov.au/fwo/IDD60801/IDD60801.94231.axf

JavaScript Object Notation format (JSON) in row-major order
http://www.bom.gov.au/fwo/IDD60801/IDD60801.94231.json